Data Viewer
| City | State | Eastern Time | Source | Temp | DewPt | RH | BP | 5 Min Precip | Wind Speed | Wind Dir | 5 Min Wind Max | 5 Min Wind Max Dir |
|---|---|---|---|---|---|---|---|---|---|---|---|---|
| Mount Pocono | PA | 2026-05-09 16:53 | ASOS | 51 | 48 | 89 | 29.82 | 12 | WSW | |||
| Mount Pocono | PA | 2026-05-10 10:40 | ASOS | 59 | 48 | 67 | 29.90 | 9 | WSW | |||
| Mount Pocono | PA | 2026-05-10 09:55 | ASOS | 59 | 48 | 67 | 29.89 | 14 | W | |||
| Mount Pocono | PA | 2026-05-10 10:00 | ASOS | 59 | 48 | 67 | 29.89 | 14 | W | |||
| Mount Pocono | PA | 2026-05-10 10:05 | ASOS | 61 | 50 | 68 | 29.88 | 12 | WSW | |||
| Mount Pocono | PA | 2026-05-10 10:15 | ASOS | 61 | 50 | 68 | 29.88 | 12 | W | |||
| Mount Pocono | PA | 2026-05-10 10:20 | ASOS | 61 | 48 | 63 | 29.88 | 15 | WSW | |||
| Mount Pocono | PA | 2026-05-10 10:25 | ASOS | 61 | 48 | 63 | 29.88 | 13 | W | |||
| Mount Pocono | PA | 2026-05-10 10:30 | ASOS | 61 | 48 | 63 | 29.89 | 12 | W | |||
| Mount Pocono | PA | 2026-05-10 10:50 | ASOS | 61 | 48 | 63 | 29.88 | 9 | W | |||
| Mount Pocono | PA | 2026-05-10 09:50 | ASOS | 61 | 50 | 68 | 29.88 | 13 | W | |||
| Mount Pocono | PA | 2026-05-10 10:53 | ASOS | 60 | 49 | 67 | 29.89 | 10 | W | |||
| Mount Pocono | PA | 2026-05-10 11:00 | ASOS | 61 | 48 | 63 | 29.89 | 13 | W | |||
| Mount Pocono | PA | 2026-05-10 11:10 | ASOS | 61 | 48 | 63 | 29.90 | 13 | SW | |||
| Mount Pocono | PA | 2026-05-10 11:15 | ASOS | 61 | 48 | 63 | 29.90 | 12 | SW | |||
| Mount Pocono | PA | 2026-05-10 11:20 | ASOS | 61 | 48 | 63 | 29.90 | 10 | SW | |||
| Mount Pocono | PA | 2026-05-10 11:25 | ASOS | 61 | 48 | 63 | 29.90 | 10 | SSW | |||
| Mount Pocono | PA | 2026-05-10 11:30 | ASOS | 61 | 48 | 63 | 29.90 | 12 | W | |||
| Mount Pocono | PA | 2026-05-10 11:35 | ASOS | 61 | 48 | 63 | 29.90 | 7 | WSW | |||
| Mount Pocono | PA | 2026-05-10 09:53 | ASOS | 60 | 50 | 69 | 29.88 | 17 | W | |||
| Mount Pocono | PA | 2026-05-10 09:45 | ASOS | 59 | 48 | 67 | 29.89 | 12 | WSW | |||
| Mount Pocono | PA | 2026-05-10 11:45 | ASOS | 61 | 48 | 63 | 29.90 | 14 | SW | |||
| Mount Pocono | PA | 2026-05-10 08:53 | ASOS | 57 | 49 | 74 | 29.88 | 14 | W | |||
| Mount Pocono | PA | 2026-05-10 08:15 | ASOS | 55 | 48 | 77 | 29.88 | 12 | WSW | |||
| Mount Pocono | PA | 2026-05-10 08:20 | ASOS | 55 | 48 | 77 | 29.88 | 12 | WSW | |||
| Mount Pocono | PA | 2026-05-10 08:25 | ASOS | 55 | 50 | 82 | 29.88 | 10 | WSW | |||
| Mount Pocono | PA | 2026-05-10 08:30 | ASOS | 55 | 48 | 77 | 29.89 | 13 | W | |||
| Mount Pocono | PA | 2026-05-10 08:35 | ASOS | 55 | 48 | 77 | 29.89 | 12 | WSW | |||
| Mount Pocono | PA | 2026-05-10 08:40 | ASOS | 57 | 48 | 72 | 29.88 | 15 | W | |||
| Mount Pocono | PA | 2026-05-10 08:45 | ASOS | 57 | 48 | 72 | 29.88 | 14 | WSW | |||
| Mount Pocono | PA | 2026-05-10 08:50 | ASOS | 55 | 48 | 77 | 29.89 | 12 | WSW | |||
| Mount Pocono | PA | 2026-05-10 08:55 | ASOS | 57 | 48 | 72 | 29.88 | 12 | WSW | |||
| Mount Pocono | PA | 2026-05-10 09:40 | ASOS | 59 | 48 | 67 | 29.89 | 13 | WSW | |||
| Mount Pocono | PA | 2026-05-10 09:00 | ASOS | 57 | 48 | 72 | 29.88 | 10 | WSW | |||
| Mount Pocono | PA | 2026-05-10 09:05 | ASOS | 57 | 48 | 72 | 29.88 | 9 | WSW | |||
| Mount Pocono | PA | 2026-05-10 09:10 | ASOS | 57 | 48 | 72 | 29.88 | 17 | WSW | |||
| Mount Pocono | PA | 2026-05-10 09:15 | ASOS | 57 | 48 | 72 | 29.88 | 12 | WSW | |||
| Mount Pocono | PA | 2026-05-10 09:20 | ASOS | 57 | 48 | 72 | 29.88 | 10 | W | |||
| Mount Pocono | PA | 2026-05-10 09:25 | ASOS | 59 | 48 | 67 | 29.88 | 9 | WSW | |||
| Mount Pocono | PA | 2026-05-10 09:30 | ASOS | 57 | 48 | 72 | 29.88 | 8 | WSW | |||
| Mount Pocono | PA | 2026-05-10 09:35 | ASOS | 59 | 48 | 67 | 29.89 | 10 | W | |||
| Mount Pocono | PA | 2026-05-10 11:40 | ASOS | 63 | 48 | 59 | 29.89 | 13 | SW | |||
| Mount Pocono | PA | 2026-05-10 11:50 | ASOS | 61 | 48 | 63 | 29.90 | 10 | SW | |||
| Mount Pocono | PA | 2026-05-10 08:00 | ASOS | 54 | 50 | 88 | 29.88 | 10 | SW | |||
| Mount Pocono | PA | 2026-05-10 14:25 | ASOS | 55 | 52 | 88 | 29.94 | 13 | SW | |||
| Mount Pocono | PA | 2026-05-10 13:40 | ASOS | 55 | 50 | 82 | 29.94 | 10 | WSW | |||
| Mount Pocono | PA | 2026-05-10 13:45 | ASOS | 55 | 52 | 88 | 29.95 | 13 | WSW | |||
| Mount Pocono | PA | 2026-05-10 13:50 | ASOS | 55 | 52 | 88 | 29.95 | 12 | WSW | |||
| Mount Pocono | PA | 2026-05-10 13:53 | ASOS | 56 | 51 | 84 | 29.94 | 10 | WSW | |||
| Mount Pocono | PA | 2026-05-10 14:00 | ASOS | 55 | 52 | 88 | 29.94 | 10 | WSW | |||
| Mount Pocono | PA | 2026-05-10 14:05 | ASOS | 57 | 52 | 82 | 29.93 | 10 | SW | |||
| Mount Pocono | PA | 2026-05-10 14:15 | ASOS | 55 | 52 | 88 | 29.94 | 10 | WSW | |||
| Mount Pocono | PA | 2026-05-10 14:20 | ASOS | 55 | 52 | 88 | 29.94 | 13 | WSW | |||
| Mount Pocono | PA | 2026-05-10 14:30 | ASOS | 55 | 52 | 88 | 29.94 | 13 | WSW | |||
| Mount Pocono | PA | 2026-05-10 13:30 | ASOS | 55 | 50 | 82 | 29.94 | 12 | WSW | |||
| Mount Pocono | PA | 2026-05-10 14:35 | ASOS | 57 | 52 | 82 | 29.93 | 9 | WSW | |||
| Mount Pocono | PA | 2026-05-10 14:40 | ASOS | 57 | 52 | 82 | 29.93 | 10 | WSW | |||
| Mount Pocono | PA | 2026-05-10 14:45 | ASOS | 57 | 52 | 82 | 29.93 | 12 | SW | |||
| Mount Pocono | PA | 2026-05-10 14:50 | ASOS | 57 | 52 | 82 | 29.93 | 12 | SW | |||
| Mount Pocono | PA | 2026-05-10 14:53 | ASOS | 58 | 51 | 78 | 29.93 | 16 | W | |||
| Mount Pocono | PA | 2026-05-10 14:55 | ASOS | 57 | 50 | 77 | 29.93 | 12 | WSW | |||
| Mount Pocono | PA | 2026-05-10 15:00 | ASOS | 57 | 48 | 72 | 29.93 | 16 | WSW | |||
| Mount Pocono | PA | 2026-05-10 15:05 | ASOS | 57 | 48 | 72 | 29.93 | 16 | WSW | |||
| Mount Pocono | PA | 2026-05-10 13:35 | ASOS | 55 | 50 | 82 | 29.94 | 10 | WSW | |||
| Mount Pocono | PA | 2026-05-10 13:25 | ASOS | 55 | 50 | 82 | 29.94 | 12 | WSW | |||
| Mount Pocono | PA | 2026-05-10 11:53 | ASOS | 61 | 48 | 62 | 29.90 | 12 | WSW | |||
| Mount Pocono | PA | 2026-05-10 12:35 | ASOS | 59 | 46 | 63 | 29.92 | 9 | WSW | |||
| Mount Pocono | PA | 2026-05-10 11:55 | ASOS | 61 | 48 | 63 | 29.90 | 10 | WSW | |||
| Mount Pocono | PA | 2026-05-10 12:00 | ASOS | 63 | 48 | 59 | 29.89 | 8 | SW | |||
| Mount Pocono | PA | 2026-05-10 12:05 | ASOS | 61 | 48 | 63 | 29.90 | 10 | W | |||
| Mount Pocono | PA | 2026-05-10 12:10 | ASOS | 61 | 46 | 59 | 29.90 | 10 | SW | |||
| Mount Pocono | PA | 2026-05-10 12:15 | ASOS | 61 | 46 | 59 | 29.91 | 13 | WSW | |||
| Mount Pocono | PA | 2026-05-10 12:20 | ASOS | 61 | 46 | 59 | 29.91 | 10 | WSW | |||
| Mount Pocono | PA | 2026-05-10 12:25 | ASOS | 59 | 46 | 63 | 29.92 | 13 | WSW | |||
| Mount Pocono | PA | 2026-05-10 12:30 | ASOS | 59 | 48 | 67 | 29.92 | 12 | W | |||
| Mount Pocono | PA | 2026-05-10 12:40 | ASOS | 59 | 48 | 67 | 29.92 | 9 | WSW | |||
| Mount Pocono | PA | 2026-05-10 13:20 | ASOS | 57 | 50 | 77 | 29.93 | 10 | SW | |||
| Mount Pocono | PA | 2026-05-10 12:45 | ASOS | 59 | 48 | 67 | 29.92 | 12 | WSW | |||
| Mount Pocono | PA | 2026-05-10 12:50 | ASOS | 59 | 48 | 67 | 29.92 | 8 | WSW | |||
| Mount Pocono | PA | 2026-05-10 12:53 | ASOS | 59 | 49 | 69 | 29.92 | 13 | WSW | |||
| Mount Pocono | PA | 2026-05-10 12:55 | ASOS | 59 | 48 | 67 | 29.92 | 9 | WSW | |||
| Mount Pocono | PA | 2026-05-10 13:00 | ASOS | 59 | 48 | 67 | 29.92 | 13 | SW | |||
| Mount Pocono | PA | 2026-05-10 13:05 | ASOS | 57 | 48 | 72 | 29.93 | 14 | WSW | |||
| Mount Pocono | PA | 2026-05-10 13:10 | ASOS | 57 | 48 | 72 | 29.93 | 12 | SW | |||
| Mount Pocono | PA | 2026-05-10 13:15 | ASOS | 57 | 50 | 77 | 29.93 | 12 | WSW | |||
| Mount Pocono | PA | 2026-05-10 08:05 | ASOS | 54 | 50 | 88 | 29.88 | 9 | SW | |||
| Mount Pocono | PA | 2026-05-10 07:55 | ASOS | 54 | 50 | 88 | 29.88 | 8 | WSW | |||
| Mount Pocono | PA | 2026-05-09 17:16 | ASOS | 52 | 48 | 86 | 29.81 | 13 | WSW | |||
| Mount Pocono | PA | 2026-05-10 03:50 | ASOS | 48 | 48 | 100 | 29.86 | 5 | SE | |||
| Mount Pocono | PA | 2026-05-10 03:10 | ASOS | 48 | 48 | 100 | 29.88 | 7 | W | |||
| Mount Pocono | PA | 2026-05-10 03:15 | ASOS | 48 | 48 | 100 | 29.88 | 6 | W | |||
| Mount Pocono | PA | 2026-05-10 03:20 | ASOS | 48 | 48 | 100 | 29.88 | 5 | W | |||
| Mount Pocono | PA | 2026-05-10 03:25 | ASOS | 48 | 48 | 100 | 29.88 | 5 | W | |||
| Mount Pocono | PA | 2026-05-10 03:30 | ASOS | 48 | 48 | 100 | 29.87 | 3 | WSW | |||
| Mount Pocono | PA | 2026-05-10 03:35 | ASOS | 48 | 48 | 100 | 29.87 | 3 | S | |||
| Mount Pocono | PA | 2026-05-10 03:40 | ASOS | 48 | 48 | 100 | 29.86 | 3 | S | |||
| Mount Pocono | PA | 2026-05-10 03:45 | ASOS | 48 | 48 | 100 | 29.86 | 3 | SSE | |||
| Mount Pocono | PA | 2026-05-10 03:53 | ASOS | 48 | 48 | 100 | 29.85 | 5 | SE | |||
| Mount Pocono | PA | 2026-05-10 03:00 | ASOS | 48 | 48 | 100 | 29.88 | 8 | WNW | |||
| Mount Pocono | PA | 2026-05-10 03:55 | ASOS | 48 | 48 | 100 | 29.85 | 6 | SE | |||
| Mount Pocono | PA | 2026-05-10 04:00 | ASOS | 48 | 48 | 100 | 29.86 | 6 | SE | |||
| Mount Pocono | PA | 2026-05-10 04:05 | ASOS | 48 | 48 | 100 | 29.86 | 6 | SE | |||
| Mount Pocono | PA | 2026-05-10 04:10 | ASOS | 48 | 48 | 100 | 29.86 | 6 | SE | |||
| Mount Pocono | PA | 2026-05-10 04:12 | ASOS | 48 | 48 | 100 | 29.86 | 5 | SE | |||
| Mount Pocono | PA | 2026-05-10 04:15 | ASOS | 48 | 48 | 100 | 29.86 | 6 | SE | |||
| Mount Pocono | PA | 2026-05-10 04:20 | ASOS | 48 | 48 | 100 | 29.86 | 6 | SE | |||
| Mount Pocono | PA | 2026-05-10 04:25 | ASOS | 48 | 48 | 100 | 29.86 | 5 | ESE | |||
| Mount Pocono | PA | 2026-05-10 03:05 | ASOS | 48 | 48 | 100 | 29.88 | 8 | W | |||
| Mount Pocono | PA | 2026-05-10 02:55 | ASOS | 48 | 48 | 100 | 29.88 | 8 | W | |||
| Mount Pocono | PA | 2026-05-10 04:35 | ASOS | 48 | 48 | 100 | 29.86 | 6 | ESE | |||
| Mount Pocono | PA | 2026-05-10 02:15 | ASOS | 48 | 48 | 100 | 29.87 | 8 | WSW | |||
| Mount Pocono | PA | 2026-05-09 17:53 | ASOS | 53 | 48 | 83 | 29.80 | 10 | WSW | |||
| Mount Pocono | PA | 2026-05-09 18:53 | ASOS | 53 | 47 | 80 | 29.80 | 10 | WSW | |||
| Mount Pocono | PA | 2026-05-09 20:53 | ASOS | 48 | 47 | 96 | 29.84 | 3 | S | |||
| Mount Pocono | PA | 2026-05-09 21:38 | ASOS | 48 | 47 | 96 | 29.85 | 6 | S | |||
| Mount Pocono | PA | 2026-05-09 22:05 | ASOS | 48 | 48 | 100 | 29.86 | 6 | SSW | |||
| Mount Pocono | PA | 2026-05-09 22:53 | ASOS | 48 | 47 | 96 | 29.85 | 3 | SSW | |||
| Mount Pocono | PA | 2026-05-09 23:53 | ASOS | 46 | 46 | 100 | 29.87 | 0 | N | |||
| Mount Pocono | PA | 2026-05-10 01:53 | ASOS | 49 | 48 | 97 | 29.87 | 6 | WSW | |||
| Mount Pocono | PA | 2026-05-10 02:16 | ASOS | 49 | 48 | 97 | 29.87 | 9 | WSW | |||
| Mount Pocono | PA | 2026-05-10 02:53 | ASOS | 48 | 48 | 100 | 29.88 | 8 | W | |||
| Mount Pocono | PA | 2026-05-10 02:20 | ASOS | 48 | 48 | 100 | 29.87 | 7 | W | |||
| Mount Pocono | PA | 2026-05-10 02:25 | ASOS | 48 | 48 | 100 | 29.88 | 13 | W | |||
| Mount Pocono | PA | 2026-05-10 02:30 | ASOS | 48 | 48 | 100 | 29.88 | 10 | WNW | |||
| Mount Pocono | PA | 2026-05-10 02:35 | ASOS | 49 | 48 | 97 | 29.89 | 10 | W | |||
| Mount Pocono | PA | 2026-05-10 02:40 | ASOS | 48 | 48 | 100 | 29.88 | 9 | WNW | |||
| Mount Pocono | PA | 2026-05-10 02:45 | ASOS | 48 | 48 | 100 | 29.88 | 7 | W | |||
| Mount Pocono | PA | 2026-05-10 02:48 | ASOS | 48 | 48 | 100 | 29.88 | 8 | W | |||
| Mount Pocono | PA | 2026-05-10 02:50 | ASOS | 48 | 48 | 100 | 29.88 | 10 | W | |||
| Mount Pocono | PA | 2026-05-10 04:30 | ASOS | 48 | 48 | 100 | 29.86 | 5 | ESE | |||
| Mount Pocono | PA | 2026-05-10 04:40 | ASOS | 48 | 48 | 100 | 29.86 | 7 | ESE | |||
| Mount Pocono | PA | 2026-05-10 07:53 | ASOS | 53 | 51 | 93 | 29.88 | 8 | WSW | |||
| Mount Pocono | PA | 2026-05-10 07:05 | ASOS | 48 | 48 | 100 | 29.89 | 5 | W | |||
| Mount Pocono | PA | 2026-05-10 06:30 | ASOS | 48 | 48 | 100 | 29.87 | 6 | WSW | |||
| Mount Pocono | PA | 2026-05-10 06:35 | ASOS | 48 | 48 | 100 | 29.88 | 5 | WSW | |||
| Mount Pocono | PA | 2026-05-10 06:40 | ASOS | 48 | 48 | 100 | 29.88 | 6 | WSW | |||
| Mount Pocono | PA | 2026-05-10 06:45 | ASOS | 48 | 48 | 100 | 29.88 | 5 | WSW | |||
| Mount Pocono | PA | 2026-05-10 06:50 | ASOS | 50 | 48 | 94 | 29.87 | 5 | W | |||
| Mount Pocono | PA | 2026-05-10 06:53 | ASOS | 50 | 49 | 96 | 29.87 | 6 | W | |||
| Mount Pocono | PA | 2026-05-10 06:55 | ASOS | 50 | 48 | 94 | 29.87 | 5 | W | |||
| Mount Pocono | PA | 2026-05-10 07:00 | ASOS | 50 | 48 | 94 | 29.87 | 5 | W | |||
| Mount Pocono | PA | 2026-05-10 07:10 | ASOS | 48 | 48 | 100 | 29.89 | 6 | W | |||
| Mount Pocono | PA | 2026-05-10 06:20 | ASOS | 48 | 48 | 100 | 29.87 | 5 | W | |||
| Mount Pocono | PA | 2026-05-10 07:15 | ASOS | 50 | 48 | 94 | 29.88 | 3 | WSW | |||
| Mount Pocono | PA | 2026-05-10 07:20 | ASOS | 50 | 48 | 94 | 29.88 | 3 | SW | |||
| Mount Pocono | PA | 2026-05-10 07:25 | ASOS | 52 | 50 | 94 | 29.87 | 3 | SW | |||
| Mount Pocono | PA | 2026-05-10 07:30 | ASOS | 52 | 50 | 94 | 29.87 | 5 | SW | |||
| Mount Pocono | PA | 2026-05-10 07:35 | ASOS | 52 | 50 | 94 | 29.87 | 6 | SW | |||
| Mount Pocono | PA | 2026-05-10 07:40 | ASOS | 52 | 50 | 94 | 29.87 | 7 | SW | |||
| Mount Pocono | PA | 2026-05-10 07:45 | ASOS | 52 | 50 | 94 | 29.88 | 7 | SW | |||
| Mount Pocono | PA | 2026-05-10 07:50 | ASOS | 52 | 52 | 100 | 29.88 | 8 | SW | |||
| Mount Pocono | PA | 2026-05-10 06:25 | ASOS | 48 | 48 | 100 | 29.87 | 5 | WSW | |||
| Mount Pocono | PA | 2026-05-10 06:15 | ASOS | 48 | 48 | 100 | 29.87 | 3 | WSW | |||
| Mount Pocono | PA | 2026-05-10 04:45 | ASOS | 48 | 48 | 100 | 29.86 | 8 | ESE | |||
| Mount Pocono | PA | 2026-05-10 05:26 | ASOS | 48 | 48 | 100 | 29.87 | 0 | N | |||
| Mount Pocono | PA | 2026-05-10 04:53 | ASOS | 48 | 48 | 100 | 29.86 | 5 | SE | |||
| Mount Pocono | PA | 2026-05-10 05:00 | ASOS | 48 | 48 | 100 | 29.86 | 0 | N | |||
| Mount Pocono | PA | 2026-05-10 05:05 | ASOS | 48 | 48 | 100 | 29.86 | 0 | N | |||
| Mount Pocono | PA | 2026-05-10 05:10 | ASOS | 48 | 48 | 100 | 29.86 | 3 | S | |||
| Mount Pocono | PA | 2026-05-10 05:15 | ASOS | 48 | 48 | 100 | 29.87 | 3 | S | |||
| Mount Pocono | PA | 2026-05-10 05:18 | ASOS | 48 | 48 | 100 | 29.87 | 3 | S | |||
| Mount Pocono | PA | 2026-05-10 05:20 | ASOS | 48 | 48 | 100 | 29.87 | 3 | SSW | |||
| Mount Pocono | PA | 2026-05-10 05:25 | ASOS | 48 | 48 | 100 | 29.87 | 0 | N | |||
| Mount Pocono | PA | 2026-05-10 05:30 | ASOS | 48 | 48 | 100 | 29.87 | 0 | N | |||
| Mount Pocono | PA | 2026-05-10 06:10 | ASOS | 48 | 48 | 100 | 29.87 | 5 | WSW | |||
| Mount Pocono | PA | 2026-05-10 05:35 | ASOS | 48 | 48 | 100 | 29.87 | 0 | N | |||
| Mount Pocono | PA | 2026-05-10 05:40 | ASOS | 48 | 48 | 100 | 29.87 | 0 | N | |||
| Mount Pocono | PA | 2026-05-10 05:45 | ASOS | 48 | 48 | 100 | 29.87 | 0 | N | |||
| Mount Pocono | PA | 2026-05-10 05:50 | ASOS | 48 | 48 | 100 | 29.87 | 3 | W | |||
| Mount Pocono | PA | 2026-05-10 05:53 | ASOS | 48 | 48 | 100 | 29.87 | 3 | W | |||
| Mount Pocono | PA | 2026-05-10 05:55 | ASOS | 48 | 48 | 100 | 29.87 | 3 | W | |||
| Mount Pocono | PA | 2026-05-10 06:00 | ASOS | 48 | 48 | 100 | 29.87 | 3 | WSW | |||
| Mount Pocono | PA | 2026-05-10 06:05 | ASOS | 48 | 48 | 100 | 29.87 | 3 | SW | |||
| Mount Pocono | PA | 2026-05-10 15:10 | ASOS | 57 | 48 | 72 | 29.93 | 10 | W |
data collection created in 0.027662038803101 (queried in 0.007515) rendered in: 0.0003049373626709

